Time;durP1;ratioP1;P1;durP2;ratioP2;P2;SDS_P1;SDS_P2;PMS_P1;PMS_P2;Temp;Humidity;BMP_temperature;BMP_pressure;BME280_temperature;BME280_humidity;BME280_pressure;Samples;Min_cycle;Max_cycle;Signal;HPM_P1;HPM_P2
2022/11/18 05:04:06;;;;;;;0.70;0.40;;;8.30;99.90;;;;;;5816223;23;20319;-70
2022/11/18 05:06:33;;;;;;;0.43;0.43;;;8.20;99.90;;;;;;4957628;29;20223;-70
2022/11/18 05:09:00;;;;;;;0.45;0.45;;;8.20;99.90;;;;;;4957538;29;20211;-70
2022/11/18 05:14:11;;;;;;;0.30;0.30;;;8.10;99.90;;;;;;4969905;28;20706;-69
2022/11/18 05:16:37;;;;;;;1.08;0.90;;;8.10;99.90;;;;;;4959309;28;20203;-70
2022/11/18 05:19:04;;;;;;;0.40;0.40;;;8.10;99.90;;;;;;4921216;29;20186;-70
2022/11/18 05:21:30;;;;;;;0.73;0.60;;;8.00;99.90;;;;;;4938313;29;20192;-69
2022/11/18 05:23:57;;;;;;;0.50;0.50;;;8.00;99.90;;;;;;4937839;29;20189;-69
2022/11/18 05:26:22;;;;;;;0.60;0.60;;;8.00;99.90;;;;;;4938261;29;20256;-69
2022/11/18 05:28:48;;;;;;;0.53;0.53;;;8.00;99.90;;;;;;4937706;28;20296;-70
2022/11/18 05:31:15;;;;;;;0.50;0.50;;;8.00;99.90;;;;;;4976362;28;20168;-69
2022/11/18 05:33:41;;;;;;;0.50;0.50;;;8.00;99.90;;;;;;4975047;28;20195;-68
2022/11/18 05:36:12;;;;;;;0.57;0.57;;;8.00;99.90;;;;;;4976052;28;20531;-68
2022/11/18 05:38:38;;;;;;;0.70;0.68;;;8.00;99.90;;;;;;4976544;28;20172;-68
2022/11/18 05:41:05;;;;;;;0.70;0.70;;;8.00;99.90;;;;;;4976409;28;20259;-69
2022/11/18 05:43:31;;;;;;;0.50;0.47;;;8.10;99.90;;;;;;4976031;28;20831;-68
2022/11/18 05:45:57;;;;;;;0.88;0.88;;;8.00;99.90;;;;;;4975927;28;20183;-68
2022/11/18 05:48:23;;;;;;;0.50;0.50;;;8.00;99.90;;;;;;4976218;28;20627;-69
2022/11/18 05:50:51;;;;;;;0.70;0.70;;;8.10;99.90;;;;;;4976156;28;20404;-70
2022/11/18 05:53:18;;;;;;;0.60;0.57;;;8.10;99.90;;;;;;4975866;28;20419;-70
2022/11/18 05:55:57;;;;;;;0.43;0.43;;;8.10;99.90;;;;;;4975966;28;20199;-71
2022/11/18 05:58:23;;;;;;;0.47;0.45;;;8.10;99.90;;;;;;4976059;28;20195;-69
2022/11/18 06:00:52;;;;;;;0.40;0.40;;;8.10;99.90;;;;;;4976104;28;20182;-69
2022/11/18 06:03:22;;;;;;;0.40;0.40;;;8.10;99.90;;;;;;4975843;28;20182;-69
2022/11/18 06:05:48;;;;;;;0.80;0.65;;;8.10;99.90;;;;;;4968026;28;20197;-70
2022/11/18 06:08:16;;;;;;;0.40;0.40;;;8.00;99.90;;;;;;4945771;29;20180;-69
2022/11/18 06:10:44;;;;;;;1.27;0.50;;;8.00;99.90;;;;;;4952008;29;20188;-71
2022/11/18 06:13:14;;;;;;;0.52;0.52;;;8.00;99.90;;;;;;4955745;29;20176;-69
2022/11/18 06:15:42;;;;;;;0.50;0.50;;;8.00;99.90;;;;;;4956106;28;20228;-69
2022/11/18 06:18:16;;;;;;;0.60;0.52;;;8.00;99.90;;;;;;4956350;29;20211;-69
2022/11/18 06:20:42;;;;;;;1.88;0.90;;;8.00;99.90;;;;;;4956228;29;20164;-72
2022/11/18 06:23:08;;;;;;;2.70;1.93;;;8.00;99.90;;;;;;4955751;29;20585;-69
2022/11/18 06:25:37;;;;;;;3.47;3.00;;;8.00;99.90;;;;;;4955795;29;20561;-71
2022/11/18 06:28:03;;;;;;;1.10;1.00;;;8.00;99.90;;;;;;4957734;28;20592;-67
2022/11/18 06:30:30;;;;;;;0.52;0.52;;;8.00;99.90;;;;;;4966454;28;20287;-70
2022/11/18 06:32:55;;;;;;;1.17;0.93;;;8.00;99.90;;;;;;4958827;28;20286;-68
2022/11/18 06:35:21;;;;;;;0.73;0.73;;;7.90;99.90;;;;;;4951255;29;20233;-67
2022/11/18 06:37:47;;;;;;;0.77;0.77;;;8.00;99.90;;;;;;4937857;29;20291;-70
2022/11/18 06:40:12;;;;;;;0.93;0.50;;;8.00;99.90;;;;;;4938182;29;20183;-71
2022/11/18 06:45:23;;;;;;;0.50;0.50;;;8.00;99.90;;;;;;4939121;29;20462;-71
2022/11/18 06:47:49;;;;;;;0.80;0.50;;;8.00;99.90;;;;;;4936895;29;20169;-71
2022/11/18 06:50:15;;;;;;;0.77;0.77;;;8.00;99.90;;;;;;4952362;29;20186;-71
2022/11/18 06:52:41;;;;;;;3.00;2.00;;;8.00;99.90;;;;;;4955858;29;20191;-71
2022/11/18 06:55:07;;;;;;;1.70;1.57;;;8.00;99.90;;;;;;4955330;29;20565;-72
2022/11/18 06:57:33;;;;;;;1.88;1.15;;;8.10;99.90;;;;;;4955733;29;20200;-70
2022/11/18 06:59:59;;;;;;;2.15;0.80;;;8.10;99.90;;;;;;4950310;29;20199;-69
2022/11/18 07:02:24;;;;;;;0.80;0.80;;;8.10;99.90;;;;;;4955542;29;20243;-73
2022/11/18 07:04:50;;;;;;;0.70;0.70;;;8.10;99.90;;;;;;4954922;28;20215;-73
2022/11/18 07:07:15;;;;;;;0.60;0.60;;;8.10;99.90;;;;;;4955378;29;20177;-69
2022/11/18 07:09:41;;;;;;;3.20;1.10;;;8.10;99.90;;;;;;4955374;29;20555;-70
2022/11/18 07:12:07;;;;;;;0.50;0.50;;;8.20;99.90;;;;;;4955452;29;20181;-71
2022/11/18 07:14:32;;;;;;;1.30;1.10;;;8.20;99.90;;;;;;4954928;28;20203;-72
2022/11/18 07:16:58;;;;;;;0.67;0.67;;;8.20;99.90;;;;;;4955113;29;20251;-71
2022/11/18 07:19:24;;;;;;;0.80;0.80;;;8.20;99.90;;;;;;4955243;29;20169;-69
2022/11/18 07:21:49;;;;;;;1.47;1.37;;;8.20;99.90;;;;;;4955396;29;20651;-72
2022/11/18 07:24:15;;;;;;;3.03;2.27;;;8.20;99.90;;;;;;4955045;28;20339;-70
2022/11/18 07:26:41;;;;;;;1.93;1.40;;;8.30;99.90;;;;;;4954798;28;20179;-68
2022/11/18 07:29:07;;;;;;;2.10;0.82;;;8.20;99.90;;;;;;4955250;29;20545;-72
2022/11/18 07:31:36;;;;;;;0.85;0.85;;;8.20;99.90;;;;;;4955124;29;20183;-69
2022/11/18 07:34:02;;;;;;;1.08;1.00;;;8.20;99.90;;;;;;4954724;29;20251;-73
2022/11/18 07:36:28;;;;;;;0.77;0.77;;;8.20;99.90;;;;;;4937780;29;20187;-69
2022/11/18 07:38:54;;;;;;;5.22;4.00;;;8.20;99.90;;;;;;4937641;29;20420;-71
2022/11/18 07:41:25;;;;;;;1.15;1.15;;;8.20;99.90;;;;;;4955182;29;20169;-69
2022/11/18 07:43:53;;;;;;;1.08;0.68;;;8.20;99.90;;;;;;4949243;29;20204;-70
2022/11/18 07:46:23;;;;;;;0.98;0.98;;;8.20;99.90;;;;;;4954296;28;20692;-70
2022/11/18 07:48:54;;;;;;;1.15;1.05;;;8.20;99.90;;;;;;4954446;29;20176;-67
2022/11/18 07:51:23;;;;;;;1.83;1.73;;;8.20;99.90;;;;;;4955039;29;20177;-70
2022/11/18 07:53:48;;;;;;;0.60;0.60;;;8.30;99.90;;;;;;4953748;29;20247;-71
2022/11/18 07:56:15;;;;;;;0.90;0.90;;;8.30;99.90;;;;;;4953266;29;20176;-69
2022/11/18 07:58:41;;;;;;;0.60;0.60;;;8.40;99.90;;;;;;4954494;29;20183;-70
2022/11/18 08:01:09;;;;;;;0.70;0.70;;;8.40;99.90;;;;;;4955013;29;20169;-71
2022/11/18 08:03:35;;;;;;;0.95;0.95;;;8.40;99.90;;;;;;4954261;28;20181;-71
2022/11/18 08:06:02;;;;;;;6.97;0.90;;;8.40;99.90;;;;;;4954262;29;20189;-70
2022/11/18 08:08:27;;;;;;;2.40;0.80;;;8.40;99.90;;;;;;4954943;29;20200;-70
2022/11/18 08:10:57;;;;;;;0.97;0.93;;;8.40;99.90;;;;;;4954838;29;20192;-71
2022/11/18 08:13:24;;;;;;;0.75;0.75;;;8.40;99.90;;;;;;4952963;29;20195;-71
2022/11/18 08:15:50;;;;;;;0.80;0.80;;;8.50;99.90;;;;;;4954666;29;20187;-70
2022/11/18 08:18:15;;;;;;;1.50;0.40;;;8.50;99.90;;;;;;4954310;29;20203;-70
2022/11/18 08:20:41;;;;;;;1.50;1.27;;;8.50;99.90;;;;;;4954973;29;20653;-71
2022/11/18 08:23:06;;;;;;;0.80;0.80;;;8.60;99.90;;;;;;4954090;29;20180;-70
2022/11/18 08:25:32;;;;;;;0.63;0.63;;;8.60;99.90;;;;;;4954777;29;20263;-73
2022/11/18 08:27:58;;;;;;;0.90;0.90;;;8.60;99.90;;;;;;4954140;29;20716;-71
2022/11/18 08:30:23;;;;;;;0.97;0.70;;;8.60;99.90;;;;;;4955029;29;20709;-69
2022/11/18 08:32:49;;;;;;;0.70;0.70;;;8.60;99.90;;;;;;4953931;29;20185;-70
2022/11/18 08:35:14;;;;;;;0.50;0.50;;;8.70;99.90;;;;;;4954434;29;20409;-71
2022/11/18 08:37:40;;;;;;;0.70;0.70;;;8.70;99.90;;;;;;4955663;28;20640;-70
2022/11/18 08:40:06;;;;;;;0.57;0.53;;;8.70;99.90;;;;;;4956782;29;20204;-68
2022/11/18 08:42:32;;;;;;;0.68;0.63;;;8.80;99.90;;;;;;4957532;28;20205;-68
2022/11/18 08:44:57;;;;;;;0.77;0.77;;;8.80;99.90;;;;;;4956773;29;20227;-68
2022/11/18 08:47:23;;;;;;;1.20;1.10;;;8.80;99.90;;;;;;4959401;28;20188;-68
2022/11/18 08:49:49;;;;;;;1.20;1.10;;;8.90;99.90;;;;;;4978046;28;20223;-67
2022/11/18 08:52:14;;;;;;;0.87;0.87;;;8.90;99.90;;;;;;4977457;28;20707;-66
2022/11/18 08:54:40;;;;;;;2.03;0.97;;;8.90;99.90;;;;;;4977134;28;20200;-68
2022/11/18 08:57:05;;;;;;;0.53;0.47;;;8.90;99.90;;;;;;4977587;28;20196;-67
2022/11/18 08:59:31;;;;;;;1.27;1.10;;;9.00;99.90;;;;;;4978496;28;20168;-67
2022/11/18 09:01:57;;;;;;;0.63;0.63;;;9.10;99.90;;;;;;4969137;28;20180;-67
2022/11/18 09:04:22;;;;;;;0.53;0.53;;;9.20;99.90;;;;;;4957644;28;20192;-68
2022/11/18 09:06:48;;;;;;;0.87;0.63;;;9.20;99.90;;;;;;4952766;29;20181;-68
2022/11/18 09:09:14;;;;;;;2.20;0.90;;;9.30;99.90;;;;;;4957083;29;20212;-65
2022/11/18 09:11:41;;;;;;;0.70;0.60;;;9.30;99.90;;;;;;4957542;29;20192;-68
2022/11/18 09:14:09;;;;;;;1.05;0.90;;;9.40;99.90;;;;;;4956887;29;20197;-67
2022/11/18 09:16:35;;;;;;;1.10;1.00;;;9.40;99.90;;;;;;4957627;29;20201;-67
2022/11/18 09:19:01;;;;;;;0.63;0.63;;;9.50;99.90;;;;;;4957143;29;20208;-68
2022/11/18 09:21:26;;;;;;;0.80;0.80;;;9.60;99.90;;;;;;4956083;29;20253;-67
2022/11/18 09:23:53;;;;;;;0.50;0.50;;;9.60;99.90;;;;;;4956766;28;20443;-70
2022/11/18 09:26:21;;;;;;;0.57;0.50;;;9.60;99.90;;;;;;4957107;29;20256;-68
2022/11/18 09:28:47;;;;;;;0.95;0.95;;;9.70;99.90;;;;;;4952038;28;20336;-68
2022/11/18 09:31:16;;;;;;;0.90;0.70;;;9.70;99.90;;;;;;4951858;29;20248;-66
2022/11/18 09:33:41;;;;;;;0.50;0.50;;;9.80;99.90;;;;;;4951215;29;20438;-69
2022/11/18 09:36:16;;;;;;;0.57;0.57;;;9.70;99.90;;;;;;4956183;29;20182;-67
2022/11/18 09:38:42;;;;;;;0.63;0.63;;;9.80;99.90;;;;;;4956158;29;20528;-69
2022/11/18 09:41:29;;;;;;;1.00;0.83;;;9.80;99.90;;;;;;4954968;29;20177;-67
2022/11/18 09:44:16;;;;;;;0.50;0.50;;;9.80;99.90;;;;;;4954050;29;20656;-68
2022/11/18 09:47:19;;;;;;;0.50;0.50;;;9.90;99.90;;;;;;4956362;29;20188;-68
2022/11/18 09:49:45;;;;;;;0.70;0.70;;;9.80;99.90;;;;;;4955989;28;20599;-67
2022/11/18 09:52:19;;;;;;;0.50;0.50;;;9.80;99.90;;;;;;4952233;29;20181;-67
2022/11/18 09:54:45;;;;;;;1.38;0.70;;;9.80;99.90;;;;;;4938094;29;20292;-66
2022/11/18 09:57:22;;;;;;;0.60;0.60;;;9.70;99.90;;;;;;4938508;29;20308;-68
2022/11/18 09:59:48;;;;;;;0.63;0.63;;;9.70;99.90;;;;;;4956530;29;20932;-68
2022/11/18 10:02:28;;;;;;;0.60;0.60;;;9.60;99.90;;;;;;4956449;29;20184;-69
2022/11/18 10:04:56;;;;;;;0.60;0.60;;;9.60;99.90;;;;;;4954837;28;20665;-68
2022/11/18 10:07:41;;;;;;;0.60;0.55;;;9.60;99.90;;;;;;4954506;29;20176;-68
2022/11/18 10:10:16;;;;;;;1.75;0.70;;;9.60;99.90;;;;;;4954177;29;20739;-69
2022/11/18 10:12:54;;;;;;;3.10;0.73;;;9.50;99.90;;;;;;4953504;29;20184;-66
2022/11/18 10:15:35;;;;;;;1.50;1.40;;;9.60;99.90;;;;;;4953665;29;20612;-68
2022/11/18 10:18:28;;;;;;;0.82;0.82;;;9.60;99.90;;;;;;4953943;29;20409;-66
2022/11/18 10:21:10;;;;;;;2.35;0.95;;;9.60;99.90;;;;;;4951631;29;20200;-67
2022/11/18 10:23:52;;;;;;;0.77;0.77;;;9.60;99.90;;;;;;4955587;28;20609;-66
2022/11/18 10:26:34;;;;;;;2.75;1.75;;;9.60;99.90;;;;;;4955517;29;20207;-66
2022/11/18 10:29:00;;;;;;;1.65;1.50;;;9.60;99.90;;;;;;4938183;29;20168;-69
2022/11/18 10:31:26;;;;;;;1.15;1.05;;;9.60;99.90;;;;;;4952573;29;20177;-68
2022/11/18 10:34:02;;;;;;;0.90;0.90;;;9.60;99.90;;;;;;4935834;29;20224;-68
2022/11/18 10:36:33;;;;;;;3.15;2.95;;;9.70;99.90;;;;;;4945311;29;20169;-67
2022/11/18 10:39:07;;;;;;;1.60;1.50;;;9.80;99.90;;;;;;4954409;29;20173;-68
2022/11/18 10:41:48;;;;;;;1.23;1.13;;;10.00;99.90;;;;;;4955323;29;20283;-67
2022/11/18 10:44:27;;;;;;;3.33;2.45;;;10.00;99.90;;;;;;4953770;28;20216;-69
2022/11/18 10:46:53;;;;;;;2.05;1.20;;;10.20;99.90;;;;;;4954511;29;20173;-70
2022/11/18 10:49:19;;;;;;;1.03;1.03;;;10.30;99.90;;;;;;4937177;29;20193;-68
2022/11/18 10:51:48;;;;;;;2.13;1.50;;;10.30;99.90;;;;;;4955333;29;20211;-68
2022/11/18 10:54:17;;;;;;;3.70;2.25;;;10.40;99.90;;;;;;4936861;29;20484;-69
2022/11/18 10:56:51;;;;;;;1.45;1.33;;;10.40;99.90;;;;;;4954603;29;20208;-67
2022/11/18 10:59:45;;;;;;;2.37;1.50;;;10.50;99.90;;;;;;4953939;29;20259;-68
2022/11/18 11:02:37;;;;;;;0.93;0.77;;;10.50;99.90;;;;;;4948089;29;20507;-66
2022/11/18 11:05:16;;;;;;;1.10;1.00;;;10.60;99.90;;;;;;4954586;28;20462;-67
2022/11/18 11:07:42;;;;;;;1.40;1.30;;;10.70;99.90;;;;;;4948057;29;20241;-67
2022/11/18 11:10:07;;;;;;;0.90;0.90;;;10.80;99.90;;;;;;4937806;29;21165;-70
2022/11/18 11:12:46;;;;;;;1.30;1.30;;;10.90;99.90;;;;;;4953859;29;20179;-69
2022/11/18 11:15:44;;;;;;;1.30;1.17;;;11.00;99.90;;;;;;4954016;28;20194;-68
2022/11/18 11:18:40;;;;;;;0.80;0.80;;;11.00;99.90;;;;;;4946931;29;20790;-68
2022/11/18 11:21:21;;;;;;;2.97;0.90;;;10.90;99.90;;;;;;4942499;29;20430;-67
2022/11/18 11:23:47;;;;;;;1.52;1.40;;;10.80;99.90;;;;;;4936209;29;20198;-69
2022/11/18 11:26:44;;;;;;;0.80;0.80;;;10.70;99.90;;;;;;4953785;29;20178;-69
2022/11/18 11:29:40;;;;;;;0.80;0.80;;;10.70;99.90;;;;;;4933121;29;20421;-68
2022/11/18 11:32:09;;;;;;;1.50;1.33;;;10.70;99.90;;;;;;4954007;29;20700;-68
2022/11/18 11:34:46;;;;;;;1.63;1.52;;;10.60;99.90;;;;;;4953749;29;20440;-68
2022/11/18 11:37:24;;;;;;;1.17;1.17;;;10.50;99.90;;;;;;4954048;29;20209;-66
2022/11/18 11:39:59;;;;;;;0.70;0.70;;;10.50;99.90;;;;;;4951974;29;20177;-67
2022/11/18 11:42:59;;;;;;;0.70;0.60;;;10.50;99.90;;;;;;4952961;29;20178;-68
2022/11/18 11:45:43;;;;;;;0.90;0.90;;;10.40;99.90;;;;;;4944708;29;20279;-68
2022/11/18 11:48:47;;;;;;;0.70;0.70;;;10.40;99.90;;;;;;4953567;29;20589;-69
2022/11/18 11:51:46;;;;;;;1.70;0.80;;;10.50;99.90;;;;;;4926947;29;20190;-67
2022/11/18 11:54:22;;;;;;;0.88;0.88;;;10.50;99.90;;;;;;4953887;28;20205;-66
2022/11/18 11:56:58;;;;;;;0.60;0.60;;;10.70;99.90;;;;;;4954514;29;20201;-69
2022/11/18 12:00:06;;;;;;;2.60;1.10;;;10.80;99.90;;;;;;4937483;29;20432;-67
2022/11/18 12:03:04;;;;;;;0.80;0.80;;;10.90;99.90;;;;;;4894932;29;20446;-66
2022/11/18 12:05:34;;;;;;;0.87;0.87;;;11.10;99.90;;;;;;4890716;29;20463;-66
2022/11/18 12:08:13;;;;;;;0.57;0.57;;;11.20;99.90;;;;;;4884269;29;20954;-67
2022/11/18 12:10:50;;;;;;;0.90;0.90;;;11.20;99.90;;;;;;4895446;29;20961;-65
2022/11/18 12:13:56;;;;;;;0.80;0.80;;;11.30;99.90;;;;;;4897263;29;20887;-66
2022/11/18 12:16:21;;;;;;;1.53;1.47;;;11.30;99.90;;;;;;4883060;29;20429;-69
2022/11/18 12:19:15;;;;;;;1.53;1.17;;;11.40;99.90;;;;;;4898863;29;20445;-67
2022/11/18 12:21:46;;;;;;;0.83;0.83;;;11.40;99.90;;;;;;4896970;29;20196;-67
2022/11/18 12:24:30;;;;;;;1.73;1.00;;;11.40;99.90;;;;;;4897190;29;20455;-67
2022/11/18 12:27:05;;;;;;;0.63;0.63;;;11.40;99.90;;;;;;4882266;29;20457;-68
2022/11/18 12:29:53;;;;;;;2.00;0.80;;;11.40;99.90;;;;;;4882622;29;20436;-67
2022/11/18 12:32:24;;;;;;;1.43;0.90;;;11.50;99.90;;;;;;4902219;29;20432;-68
2022/11/18 12:35:23;;;;;;;0.50;0.50;;;11.40;99.90;;;;;;4956466;29;20451;-67
2022/11/18 12:37:51;;;;;;;0.90;0.90;;;11.40;99.90;;;;;;4939771;29;20498;-69
2022/11/18 12:40:31;;;;;;;0.50;0.50;;;11.50;99.90;;;;;;4957449;29;20506;-68
2022/11/18 12:45:41;;;;;;;0.50;0.50;;;11.40;99.90;;;;;;4957189;28;20503;-66
2022/11/18 12:48:30;;;;;;;0.70;0.70;;;11.40;99.90;;;;;;4957257;29;20831;-68
2022/11/18 12:50:58;;;;;;;1.53;0.73;;;11.40;99.90;;;;;;4949778;29;20431;-67
2022/11/18 12:53:38;;;;;;;1.70;0.70;;;11.30;99.90;;;;;;4956384;28;20445;-68
2022/11/18 12:56:23;;;;;;;0.70;0.70;;;11.20;99.90;;;;;;4956185;29;20422;-68
2022/11/18 12:58:50;;;;;;;0.80;0.77;;;11.20;99.90;;;;;;4956857;29;20445;-68
2022/11/18 13:01:21;;;;;;;0.80;0.80;;;11.20;99.90;;;;;;4955948;29;21004;-67
2022/11/18 13:03:48;;;;;;;0.80;0.57;;;11.10;99.90;;;;;;4956638;28;20445;-67
2022/11/18 13:06:33;;;;;;;0.70;0.70;;;11.10;99.90;;;;;;4961357;28;20465;-66
2022/11/18 13:09:01;;;;;;;1.83;0.80;;;11.10;99.90;;;;;;4957068;28;20547;-67
2022/11/18 13:11:45;;;;;;;0.50;0.50;;;11.20;99.90;;;;;;4949624;29;20430;-67
2022/11/18 13:17:53;;;;;;;1.37;1.00;;;11.10;99.90;;;;;;4956580;29;20521;-67
2022/11/18 13:20:30;;;;;;;0.80;0.63;;;10.90;99.90;;;;;;4956455;29;20433;-67
2022/11/18 13:25:47;;;;;;;0.60;0.60;;;10.60;99.90;;;;;;4955832;29;20217;-65
2022/11/18 13:28:57;;;;;;;1.00;1.00;;;10.50;99.90;;;;;;4939273;29;20186;-67
2022/11/18 13:31:51;;;;;;;1.60;1.50;;;10.50;99.90;;;;;;4939099;29;20452;-67
2022/11/18 13:34:19;;;;;;;1.20;1.10;;;10.40;99.90;;;;;;4955990;28;20536;-67
2022/11/18 13:36:47;;;;;;;0.90;0.90;;;10.50;99.90;;;;;;4956061;29;20206;-67
2022/11/18 13:39:21;;;;;;;0.85;0.85;;;10.50;99.90;;;;;;4955071;29;20429;-66
2022/11/18 13:42:16;;;;;;;0.93;0.93;;;10.60;99.90;;;;;;4955647;29;20237;-68
2022/11/18 13:44:57;;;;;;;0.80;0.80;;;10.70;99.90;;;;;;4944304;28;20473;-67
2022/11/18 13:47:35;;;;;;;1.23;1.15;;;10.80;99.90;;;;;;4956346;29;20431;-70
2022/11/18 13:50:19;;;;;;;0.98;0.98;;;10.90;99.90;;;;;;4956373;29;20596;-66
2022/11/18 13:53:30;;;;;;;3.80;1.07;;;10.90;99.90;;;;;;4955425;29;20187;-67
2022/11/18 13:56:01;;;;;;;0.80;0.80;;;10.90;99.90;;;;;;4954705;29;20432;-68
2022/11/18 13:58:26;;;;;;;0.80;0.80;;;11.00;99.90;;;;;;4957077;29;20465;-69
2022/11/18 14:01:00;;;;;;;1.17;1.10;;;10.90;99.90;;;;;;4953893;29;20431;-68
2022/11/18 14:03:46;;;;;;;1.23;0.93;;;10.90;99.90;;;;;;4955031;28;20193;-68
2022/11/18 14:06:27;;;;;;;0.67;0.67;;;10.90;99.90;;;;;;4949204;29;20438;-67
2022/11/18 14:09:21;;;;;;;1.17;0.80;;;10.80;99.90;;;;;;4947813;29;20425;-67
2022/11/18 14:12:06;;;;;;;0.90;0.90;;;10.70;99.90;;;;;;4955074;29;20497;-67
2022/11/18 14:14:40;;;;;;;1.20;0.85;;;10.70;99.90;;;;;;4954553;28;20936;-68
2022/11/18 14:17:21;;;;;;;0.90;0.90;;;10.60;99.90;;;;;;4937358;29;20220;-67
2022/11/18 14:19:52;;;;;;;1.30;1.05;;;10.50;99.90;;;;;;4955421;29;20181;-67
2022/11/18 14:22:25;;;;;;;1.60;1.10;;;10.50;99.90;;;;;;4937813;29;20218;-66
2022/11/18 14:24:59;;;;;;;0.90;0.90;;;10.40;99.90;;;;;;4953726;29;20205;-68
2022/11/18 14:27:35;;;;;;;1.20;1.20;;;10.30;99.90;;;;;;4955793;29;20176;-68
2022/11/18 14:30:20;;;;;;;1.30;0.80;;;10.30;99.90;;;;;;4954450;29;20185;-68
2022/11/18 14:33:08;;;;;;;0.90;0.90;;;10.20;99.90;;;;;;4955446;29;20201;-67
2022/11/18 14:35:34;;;;;;;1.40;0.90;;;10.20;99.90;;;;;;4955582;28;20288;-67
2022/11/18 14:37:59;;;;;;;1.13;1.00;;;10.10;99.90;;;;;;4955409;29;20284;-68
2022/11/18 14:40:25;;;;;;;1.70;1.20;;;10.00;99.90;;;;;;4955848;29;20177;-67
2022/11/18 14:42:51;;;;;;;0.73;0.73;;;10.00;99.90;;;;;;4953957;29;20183;-68
2022/11/18 14:45:16;;;;;;;1.00;1.00;;;9.90;99.90;;;;;;4954794;29;20187;-68
2022/11/18 14:47:42;;;;;;;1.10;0.97;;;9.90;99.90;;;;;;4955107;29;20645;-69
2022/11/18 14:50:17;;;;;;;0.90;0.90;;;9.90;99.90;;;;;;4937027;29;20181;-68
2022/11/18 14:52:42;;;;;;;2.45;1.35;;;9.90;99.90;;;;;;4936149;29;20955;-68
2022/11/18 14:55:09;;;;;;;0.80;0.80;;;9.90;99.90;;;;;;4953569;29;20209;-67
2022/11/18 14:57:35;;;;;;;1.45;1.35;;;10.00;99.90;;;;;;4954155;29;20243;-66
2022/11/18 15:00:01;;;;;;;1.27;0.77;;;10.10;99.90;;;;;;4955523;29;20209;-67
2022/11/18 15:02:26;;;;;;;2.13;2.03;;;10.10;99.90;;;;;;4955908;29;20529;-66
2022/11/18 15:04:52;;;;;;;1.57;1.47;;;10.10;99.90;;;;;;4954940;29;20693;-68
2022/11/18 15:07:18;;;;;;;1.10;1.00;;;10.10;99.90;;;;;;4955327;29;20188;-66
2022/11/18 15:09:44;;;;;;;1.65;1.00;;;10.10;99.90;;;;;;4955515;29;20183;-68
2022/11/18 15:12:09;;;;;;;0.70;0.70;;;10.10;99.90;;;;;;4938473;29;20251;-67
2022/11/18 15:14:35;;;;;;;2.10;1.10;;;10.10;99.90;;;;;;4954861;28;20792;-67
2022/11/18 15:17:02;;;;;;;1.07;1.07;;;10.10;99.90;;;;;;4937934;29;20204;-67
2022/11/18 15:19:28;;;;;;;0.90;0.90;;;10.00;99.90;;;;;;4955400;29;20166;-67
2022/11/18 15:21:53;;;;;;;0.93;0.93;;;10.00;99.90;;;;;;4955061;29;20184;-68
2022/11/18 15:24:19;;;;;;;0.97;0.97;;;10.00;99.90;;;;;;4954788;29;20439;-68
2022/11/18 15:26:47;;;;;;;1.13;1.13;;;9.90;99.90;;;;;;4955169;29;20191;-67
2022/11/18 15:29:19;;;;;;;1.30;1.20;;;9.90;99.90;;;;;;4955096;29;20224;-68
2022/11/18 15:31:45;;;;;;;1.20;1.10;;;9.80;99.90;;;;;;4954908;29;20169;-66
2022/11/18 15:34:11;;;;;;;1.85;1.30;;;9.80;99.90;;;;;;4954513;29;20318;-67
2022/11/18 15:36:37;;;;;;;0.80;0.75;;;9.70;99.90;;;;;;4954715;29;20177;-67
2022/11/18 15:39:03;;;;;;;1.33;1.00;;;9.70;99.90;;;;;;4954880;29;20174;-67
2022/11/18 15:41:30;;;;;;;2.80;1.40;;;9.70;99.90;;;;;;4954807;29;20173;-67
2022/11/18 15:43:57;;;;;;;1.70;1.52;;;9.70;99.90;;;;;;4954569;28;20559;-67
2022/11/18 15:46:24;;;;;;;1.73;1.52;;;9.70;99.90;;;;;;4955302;28;20572;-67
2022/11/18 15:48:55;;;;;;;0.68;0.68;;;9.60;99.90;;;;;;4958439;29;20231;-67
2022/11/18 15:51:21;;;;;;;1.35;1.27;;;9.60;99.90;;;;;;4958804;29;20189;-67
2022/11/18 15:53:47;;;;;;;1.98;1.40;;;9.60;99.90;;;;;;4941209;29;20577;-67
2022/11/18 15:56:33;;;;;;;2.80;2.10;;;9.60;99.90;;;;;;4958726;29;20176;-68
2022/11/18 15:59:05;;;;;;;5.45;2.05;;;9.60;99.90;;;;;;4956981;29;20558;-67
2022/11/18 16:01:37;;;;;;;0.93;0.93;;;9.60;99.90;;;;;;4958491;29;20172;-68
2022/11/18 16:04:04;;;;;;;1.35;1.35;;;9.60;99.90;;;;;;4958147;28;20573;-67
2022/11/18 16:06:30;;;;;;;1.15;1.15;;;9.70;99.90;;;;;;4957974;29;20181;-67
2022/11/18 16:08:57;;;;;;;1.10;1.10;;;9.60;99.90;;;;;;4957858;29;20188;-68
2022/11/18 16:14:09;;;;;;;1.00;1.00;;;9.60;99.90;;;;;;4957296;29;20196;-67
2022/11/18 16:16:37;;;;;;;2.05;1.85;;;9.60;99.90;;;;;;4957444;29;20181;-67
2022/11/18 16:19:05;;;;;;;1.90;1.80;;;9.60;99.90;;;;;;4957723;29;20521;-67
2022/11/18 16:21:33;;;;;;;1.90;1.80;;;9.60;99.90;;;;;;4957734;29;20189;-66
2022/11/18 16:24:00;;;;;;;3.15;1.40;;;9.60;99.90;;;;;;4957083;28;20665;-68
2022/11/18 16:26:27;;;;;;;1.50;1.40;;;9.60;99.90;;;;;;4957822;29;20181;-67
2022/11/18 16:28:53;;;;;;;3.22;2.25;;;9.60;99.90;;;;;;4937780;29;20183;-68
2022/11/18 16:34:10;;;;;;;5.38;2.00;;;9.60;99.90;;;;;;4954471;29;20462;-70
2022/11/18 16:36:37;;;;;;;1.90;1.80;;;9.60;99.90;;;;;;4957283;29;20188;-68
2022/11/18 16:39:16;;;;;;;1.90;1.80;;;9.50;99.90;;;;;;4957091;29;20200;-69
2022/11/18 16:41:43;;;;;;;2.30;1.77;;;9.50;99.90;;;;;;4956339;29;20182;-69
2022/11/18 16:44:12;;;;;;;1.60;1.50;;;9.60;99.90;;;;;;4957356;29;20221;-67
2022/11/18 16:46:40;;;;;;;2.30;2.10;;;9.60;99.90;;;;;;4957269;29;20545;-67
2022/11/18 16:49:09;;;;;;;2.55;2.13;;;9.60;99.90;;;;;;4957420;29;20182;-67
2022/11/18 16:51:35;;;;;;;5.10;2.78;;;9.50;99.90;;;;;;4957742;29;20172;-68
2022/11/18 16:54:03;;;;;;;2.00;1.90;;;9.50;99.90;;;;;;4956531;29;20497;-67
2022/11/18 16:56:31;;;;;;;3.03;2.58;;;9.50;99.90;;;;;;4957661;29;20169;-67
2022/11/18 16:59:05;;;;;;;4.63;1.70;;;9.50;99.90;;;;;;4956243;28;20182;-67
2022/11/18 17:01:31;;;;;;;3.28;2.20;;;9.40;99.90;;;;;;4957873;29;20205;-67
2022/11/18 17:03:59;;;;;;;3.00;1.85;;;9.40;99.90;;;;;;4956916;29;20189;-68
2022/11/18 17:06:25;;;;;;;1.85;1.40;;;9.40;99.90;;;;;;4956705;29;20215;-67
2022/11/18 17:08:51;;;;;;;1.50;1.40;;;9.40;99.90;;;;;;4957278;29;20578;-68
2022/11/18 17:11:17;;;;;;;2.92;2.50;;;9.40;99.90;;;;;;4956757;29;20273;-71
2022/11/18 17:13:44;;;;;;;2.50;2.30;;;9.40;99.90;;;;;;4957066;29;20201;-66
2022/11/18 17:16:15;;;;;;;2.15;2.05;;;9.40;99.90;;;;;;4957190;29;20180;-68
2022/11/18 17:18:41;;;;;;;2.90;2.30;;;9.40;99.90;;;;;;4957686;29;20291;-68
2022/11/18 17:21:18;;;;;;;4.93;4.43;;;9.40;99.90;;;;;;4939972;29;20223;-68
2022/11/18 17:23:45;;;;;;;6.07;4.53;;;9.40;99.90;;;;;;4956552;29;20216;-68
2022/11/18 17:26:12;;;;;;;5.72;4.15;;;9.40;99.90;;;;;;4956999;29;20177;-70
2022/11/18 17:28:38;;;;;;;4.18;3.70;;;9.40;99.90;;;;;;4957256;29;20173;-69
2022/11/18 17:31:10;;;;;;;4.00;3.50;;;9.40;99.90;;;;;;4957154;29;20522;-69
2022/11/18 17:33:36;;;;;;;2.38;2.28;;;9.40;99.90;;;;;;4956531;29;20431;-68
2022/11/18 17:36:05;;;;;;;1.52;1.42;;;9.40;99.90;;;;;;4956870;29;20176;-69
2022/11/18 17:38:33;;;;;;;2.70;2.47;;;9.40;99.90;;;;;;4956669;29;20219;-70
2022/11/18 17:40:59;;;;;;;2.13;1.65;;;9.40;99.90;;;;;;4956615;29;20168;-73
2022/11/18 17:43:25;;;;;;;2.40;1.80;;;9.40;99.90;;;;;;4956578;29;20223;-69
2022/11/18 17:45:53;;;;;;;2.22;2.13;;;9.40;99.90;;;;;;4939545;29;20177;-70
2022/11/18 17:48:19;;;;;;;3.72;2.63;;;9.40;99.90;;;;;;4945820;29;20546;-68
2022/11/18 17:50:45;;;;;;;2.60;1.95;;;9.40;99.90;;;;;;4956709;29;20165;-70
2022/11/18 17:53:11;;;;;;;2.17;1.80;;;9.30;99.90;;;;;;4955630;29;20208;-70
2022/11/18 17:55:37;;;;;;;3.00;1.80;;;9.40;99.90;;;;;;4956699;28;20474;-69
2022/11/18 17:58:02;;;;;;;3.33;2.20;;;9.40;99.90;;;;;;4956344;29;20198;-69
2022/11/18 18:00:30;;;;;;;3.83;2.23;;;9.40;99.90;;;;;;4956292;29;20173;-67
2022/11/18 18:02:59;;;;;;;2.60;1.58;;;9.30;99.90;;;;;;4955836;29;20863;-69
2022/11/18 18:05:25;;;;;;;3.95;1.80;;;9.30;99.90;;;;;;4955741;29;20704;-68
2022/11/18 18:07:51;;;;;;;3.60;3.37;;;9.40;99.90;;;;;;4956169;29;20227;-69
2022/11/18 18:10:18;;;;;;;2.72;1.55;;;9.40;99.90;;;;;;4956124;28;20264;-69
2022/11/18 18:15:28;;;;;;;1.75;1.65;;;9.40;99.90;;;;;;4955889;29;20227;-67
2022/11/18 18:17:54;;;;;;;2.57;2.37;;;9.40;99.90;;;;;;4955755;29;20196;-68
2022/11/18 18:20:19;;;;;;;2.47;2.27;;;9.40;99.90;;;;;;4956329;29;20833;-65
2022/11/18 18:22:45;;;;;;;3.50;3.00;;;9.40;99.90;;;;;;4955737;29;20169;-69
2022/11/18 18:25:11;;;;;;;2.60;2.40;;;9.40;99.90;;;;;;4955990;29;20715;-69
2022/11/18 18:27:37;;;;;;;2.03;1.87;;;9.40;99.90;;;;;;4955703;29;20176;-69
2022/11/18 18:30:04;;;;;;;4.22;2.10;;;9.40;99.90;;;;;;4955495;29;20796;-69
2022/11/18 18:32:29;;;;;;;2.17;2.00;;;9.40;99.90;;;;;;4938383;29;20195;-68
2022/11/18 18:34:55;;;;;;;2.33;2.13;;;9.40;99.90;;;;;;4955039;29;20193;-68
2022/11/18 18:37:21;;;;;;;4.87;2.80;;;9.40;99.90;;;;;;4955377;29;20947;-68
2022/11/18 18:39:46;;;;;;;1.70;1.60;;;9.40;99.90;;;;;;4955168;29;20184;-70